Aviation Digital Data Service (ADDS)

Output produced by METARs form (1221 UTC 15 July 2020)
found at http://www.aviationweather.gov/metar/data/
 
METAR text: ESKN 151150Z 13012KT CAVOK 18/14 Q1012
Conditions at: ESKN (SKAVSTA/STOCKHO , SE) observed 1150 UTC 15 July 2020
Temperature: 18.0°C (64°F)
Dewpoint: 14.0°C (57°F) [RH = 77%]
Pressure (altimeter): 29.88 inches Hg (1012.0 mb)
Winds: from the SE (130 degrees) at 14 MPH (12 knots; 6.2 m/s)
Visibility: 6 or more miles (10+ km)
Ceiling: ceiling and visibility are OK
Clouds: unknown
Weather: no significant weather observed at this time

METAR text: ESKN 151120Z 14012KT 9999 FEW016 SCT100 17/13 Q1012
Conditions at: ESKN (SKAVSTA/STOCKHO , SE) observed 1120 UTC 15 July 2020
Temperature: 17.0°C (63°F)
Dewpoint: 13.0°C (55°F) [RH = 77%]
Pressure (altimeter): 29.88 inches Hg (1012.0 mb)
Winds: from the SE (140 degrees) at 14 MPH (12 knots; 6.2 m/s)
Visibility: 6 or more miles (10+ km)
Ceiling: at least 12,000 feet AGL
Clouds: few clouds at 1600 feet AGL
scattered clouds at 10000 feet AGL
Weather: no significant weather observed at this time

METAR text: ESKN 151050Z 12011KT 9999 FEW015 SCT098 18/14 Q1012
Conditions at: ESKN (SKAVSTA/STOCKHO , SE) observed 1050 UTC 15 July 2020
Temperature: 18.0°C (64°F)
Dewpoint: 14.0°C (57°F) [RH = 77%]
Pressure (altimeter): 29.88 inches Hg (1012.0 mb)
Winds: from the ESE (120 degrees) at 13 MPH (11 knots; 5.7 m/s)
Visibility: 6 or more miles (10+ km)
Ceiling: at least 12,000 feet AGL
Clouds: few clouds at 1500 feet AGL
scattered clouds at 9800 feet AGL
Weather: no significant weather observed at this time

METAR text: ESKN 151020Z 13010KT CAVOK 17/13 Q1012
Conditions at: ESKN (SKAVSTA/STOCKHO , SE) observed 1020 UTC 15 July 2020
Temperature: 17.0°C (63°F)
Dewpoint: 13.0°C (55°F) [RH = 77%]
Pressure (altimeter): 29.88 inches Hg (1012.0 mb)
Winds: from the SE (130 degrees) at 12 MPH (10 knots; 5.1 m/s)
Visibility: 6 or more miles (10+ km)
Ceiling: ceiling and visibility are OK
Clouds: unknown
Weather: no significant weather observed at this time

METAR text: ESKN 150950Z 14010KT 9999 -RA FEW014 BKN061 17/13 Q1013
Conditions at: ESKN (SKAVSTA/STOCKHO , SE) observed 0950 UTC 15 July 2020
Temperature: 17.0°C (63°F)
Dewpoint: 13.0°C (55°F) [RH = 77%]
Pressure (altimeter): 29.91 inches Hg (1013.0 mb)
Winds: from the SE (140 degrees) at 12 MPH (10 knots; 5.1 m/s)
Visibility: 6 or more miles (10+ km)
Ceiling: 6100 feet AGL
Clouds: few clouds at 1400 feet AGL
broken clouds at 6100 feet AGL
Weather: -RA  (light rain)

METAR text: ESKN 150920Z 14008KT CAVOK 16/14 Q1013
Conditions at: ESKN (SKAVSTA/STOCKHO , SE) observed 0920 UTC 15 July 2020
Temperature: 16.0°C (61°F)
Dewpoint: 14.0°C (57°F) [RH = 88%]
Pressure (altimeter): 29.91 inches Hg (1013.0 mb)
Winds: from the SE (140 degrees) at 9 MPH (8 knots; 4.1 m/s)
Visibility: 6 or more miles (10+ km)
Ceiling: ceiling and visibility are OK
Clouds: unknown
Weather: no significant weather observed at this time

METAR text: ESKN 150850Z 14009KT 9999 -DZ FEW010 SCT062 BKN082 16/13 Q1012
Conditions at: ESKN (SKAVSTA/STOCKHO , SE) observed 0850 UTC 15 July 2020
Temperature: 16.0°C (61°F)
Dewpoint: 13.0°C (55°F) [RH = 82%]
Pressure (altimeter): 29.88 inches Hg (1012.0 mb)
Winds: from the SE (140 degrees) at 10 MPH (9 knots; 4.6 m/s)
Visibility: 6 or more miles (10+ km)
Ceiling: 8200 feet AGL
Clouds: few clouds at 1000 feet AGL
scattered clouds at 6200 feet AGL
broken clouds at 8200 feet AGL
Weather: -DZ  (light drizzle)

METAR text: ESKN 150820Z 14008KT 9999 -DZ FEW009 SCT053 BKN082 16/14 Q1012
Conditions at: ESKN (SKAVSTA/STOCKHO , SE) observed 0820 UTC 15 July 2020
Temperature: 16.0°C (61°F)
Dewpoint: 14.0°C (57°F) [RH = 88%]
Pressure (altimeter): 29.88 inches Hg (1012.0 mb)
Winds: from the SE (140 degrees) at 9 MPH (8 knots; 4.1 m/s)
Visibility: 6 or more miles (10+ km)
Ceiling: 8200 feet AGL
Clouds: few clouds at 900 feet AGL
scattered clouds at 5300 feet AGL
broken clouds at 8200 feet AGL
Weather: -DZ  (light drizzle)

METAR text: ESKN 150750Z 15007KT 9999 SCT009 BKN040 16/15 Q1012
Conditions at: ESKN (SKAVSTA/STOCKHO , SE) observed 0750 UTC 15 July 2020
Temperature: 16.0°C (61°F)
Dewpoint: 15.0°C (59°F) [RH = 94%]
Pressure (altimeter): 29.88 inches Hg (1012.0 mb)
Winds: from the SSE (150 degrees) at 8 MPH (7 knots; 3.6 m/s)
Visibility: 6 or more miles (10+ km)
Ceiling: 4000 feet AGL
Clouds: scattered clouds at 900 feet AGL
broken clouds at 4000 feet AGL
Weather: no significant weather observed at this time

METAR text: ESKN 150720Z 14007KT 9999 -DZ FEW008 BKN059 16/14 Q1012
Conditions at: ESKN (SKAVSTA/STOCKHO , SE) observed 0720 UTC 15 July 2020
Temperature: 16.0°C (61°F)
Dewpoint: 14.0°C (57°F) [RH = 88%]
Pressure (altimeter): 29.88 inches Hg (1012.0 mb)
Winds: from the SE (140 degrees) at 8 MPH (7 knots; 3.6 m/s)
Visibility: 6 or more miles (10+ km)
Ceiling: 5900 feet AGL
Clouds: few clouds at 800 feet AGL
broken clouds at 5900 feet AGL
Weather: -DZ  (light drizzle)

METAR text: ESKN 150650Z 13007KT 9999 -DZ BKN064 16/14 Q1012
Conditions at: ESKN (SKAVSTA/STOCKHO , SE) observed 0650 UTC 15 July 2020
Temperature: 16.0°C (61°F)
Dewpoint: 14.0°C (57°F) [RH = 88%]
Pressure (altimeter): 29.88 inches Hg (1012.0 mb)
Winds: from the SE (130 degrees) at 8 MPH (7 knots; 3.6 m/s)
Visibility: 6 or more miles (10+ km)
Ceiling: 6400 feet AGL
Clouds: broken clouds at 6400 feet AGL
Weather: -DZ  (light drizzle)

METAR text: ESKN 150620Z 13006KT 9999 -DZ BKN059 16/14 Q1012
Conditions at: ESKN (SKAVSTA/STOCKHO , SE) observed 0620 UTC 15 July 2020
Temperature: 16.0°C (61°F)
Dewpoint: 14.0°C (57°F) [RH = 88%]
Pressure (altimeter): 29.88 inches Hg (1012.0 mb)
Winds: from the SE (130 degrees) at 7 MPH (6 knots; 3.1 m/s)
Visibility: 6 or more miles (10+ km)
Ceiling: 5900 feet AGL
Clouds: broken clouds at 5900 feet AGL
Weather: -DZ  (light drizzle)

METAR text: ESKN 150550Z 15006KT 120V180 CAVOK 16/14 Q1012
Conditions at: ESKN (SKAVSTA/STOCKHO , SE) observed 0550 UTC 15 July 2020
Temperature: 16.0°C (61°F)
Dewpoint: 14.0°C (57°F) [RH = 88%]
Pressure (altimeter): 29.88 inches Hg (1012.0 mb)
Winds: from the SSE (150 degrees) at 7 MPH (6 knots; 3.1 m/s)
Visibility: 6 or more miles (10+ km)
Ceiling: ceiling and visibility are OK
Clouds: unknown
Weather: no significant weather observed at this time

METAR text: ESKN 150520Z 14006KT CAVOK 16/15 Q1012
Conditions at: ESKN (SKAVSTA/STOCKHO , SE) observed 0520 UTC 15 July 2020
Temperature: 16.0°C (61°F)
Dewpoint: 15.0°C (59°F) [RH = 94%]
Pressure (altimeter): 29.88 inches Hg (1012.0 mb)
Winds: from the SE (140 degrees) at 7 MPH (6 knots; 3.1 m/s)
Visibility: 6 or more miles (10+ km)
Ceiling: ceiling and visibility are OK
Clouds: unknown
Weather: no significant weather observed at this time

METAR text: ESKN 150450Z 14005KT CAVOK 16/15 Q1012
Conditions at: ESKN (SKAVSTA/STOCKHO , SE) observed 0450 UTC 15 July 2020
Temperature: 16.0°C (61°F)
Dewpoint: 15.0°C (59°F) [RH = 94%]
Pressure (altimeter): 29.88 inches Hg (1012.0 mb)
Winds: from the SE (140 degrees) at 6 MPH (5 knots; 2.6 m/s)
Visibility: 6 or more miles (10+ km)
Ceiling: ceiling and visibility are OK
Clouds: unknown
Weather: no significant weather observed at this time

METAR text: ESKN 150420Z 13006KT 9999 SCT005 BKN059 15/15 Q1011
Conditions at: ESKN (SKAVSTA/STOCKHO , SE) observed 0420 UTC 15 July 2020
Temperature: 15.0°C (59°F)
Dewpoint: 15.0°C (59°F) [RH = 100%]
Pressure (altimeter): 29.85 inches Hg (1011.0 mb)
Winds: from the SE (130 degrees) at 7 MPH (6 knots; 3.1 m/s)
Visibility: 6 or more miles (10+ km)
Ceiling: 5900 feet AGL
Clouds: scattered clouds at 500 feet AGL
broken clouds at 5900 feet AGL
Weather: no significant weather observed at this time

METAR text: ESKN 150350Z 12007KT 9999 VCSH BKN047 15/15 Q1012 RESHRA
Conditions at: ESKN (SKAVSTA/STOCKHO , SE) observed 0350 UTC 15 July 2020
Temperature: 15.0°C (59°F)
Dewpoint: 15.0°C (59°F) [RH = 100%]
Pressure (altimeter): 29.88 inches Hg (1012.0 mb)
Winds: from the ESE (120 degrees) at 8 MPH (7 knots; 3.6 m/s)
Visibility: 6 or more miles (10+ km)
Ceiling: 4700 feet AGL
Clouds: broken clouds at 4700 feet AGL
Weather: VCSH  (showers in vicinity)

METAR text: ESKN 150320Z 09005KT 9999 BKN049 15/14 Q1012
Conditions at: ESKN (SKAVSTA/STOCKHO , SE) observed 0320 UTC 15 July 2020
Temperature: 15.0°C (59°F)
Dewpoint: 14.0°C (57°F) [RH = 94%]
Pressure (altimeter): 29.88 inches Hg (1012.0 mb)
Winds: from the E (90 degrees) at 6 MPH (5 knots; 2.6 m/s)
Visibility: 6 or more miles (10+ km)
Ceiling: 4900 feet AGL
Clouds: broken clouds at 4900 feet AGL
Weather: no significant weather observed at this time

METAR text: ESKN 150250Z 12004KT 9999 BKN049 15/14 Q1012
Conditions at: ESKN (SKAVSTA/STOCKHO , SE) observed 0250 UTC 15 July 2020
Temperature: 15.0°C (59°F)
Dewpoint: 14.0°C (57°F) [RH = 94%]
Pressure (altimeter): 29.88 inches Hg (1012.0 mb)
Winds: from the ESE (120 degrees) at 5 MPH (4 knots; 2.1 m/s)
Visibility: 6 or more miles (10+ km)
Ceiling: 4900 feet AGL
Clouds: broken clouds at 4900 feet AGL
Weather: no significant weather observed at this time

METAR text: ESKN 150220Z 19004KT 9999 BKN049 OVC072 15/14 Q1012
Conditions at: ESKN (SKAVSTA/STOCKHO , SE) observed 0220 UTC 15 July 2020
Temperature: 15.0°C (59°F)
Dewpoint: 14.0°C (57°F) [RH = 94%]
Pressure (altimeter): 29.88 inches Hg (1012.0 mb)
Winds: from the S (190 degrees) at 5 MPH (4 knots; 2.1 m/s)
Visibility: 6 or more miles (10+ km)
Ceiling: 4900 feet AGL
Clouds: broken clouds at 4900 feet AGL
overcast cloud deck at 7200 feet AGL
Weather: no significant weather observed at this time

METAR text: ESKN 150150Z 15005KT CAVOK 15/14 Q1012
Conditions at: ESKN (SKAVSTA/STOCKHO , SE) observed 0150 UTC 15 July 2020
Temperature: 15.0°C (59°F)
Dewpoint: 14.0°C (57°F) [RH = 94%]
Pressure (altimeter): 29.88 inches Hg (1012.0 mb)
Winds: from the SSE (150 degrees) at 6 MPH (5 knots; 2.6 m/s)
Visibility: 6 or more miles (10+ km)
Ceiling: ceiling and visibility are OK
Clouds: unknown
Weather: no significant weather observed at this time

METAR text: ESKN 150120Z 11004KT CAVOK 14/14 Q1012
Conditions at: ESKN (SKAVSTA/STOCKHO , SE) observed 0120 UTC 15 July 2020
Temperature: 14.0°C (57°F)
Dewpoint: 14.0°C (57°F) [RH = 100%]
Pressure (altimeter): 29.88 inches Hg (1012.0 mb)
Winds: from the ESE (110 degrees) at 5 MPH (4 knots; 2.1 m/s)
Visibility: 6 or more miles (10+ km)
Ceiling: ceiling and visibility are OK
Clouds: unknown
Weather: no significant weather observed at this time

METAR text: ESKN 150050Z 08004KT CAVOK 14/14 Q1012
Conditions at: ESKN (SKAVSTA/STOCKHO , SE) observed 0050 UTC 15 July 2020
Temperature: 14.0°C (57°F)
Dewpoint: 14.0°C (57°F) [RH = 100%]
Pressure (altimeter): 29.88 inches Hg (1012.0 mb)
Winds: from the E (80 degrees) at 5 MPH (4 knots; 2.1 m/s)
Visibility: 6 or more miles (10+ km)
Ceiling: ceiling and visibility are OK
Clouds: unknown
Weather: no significant weather observed at this time

METAR text: ESKN 150020Z 10003KT CAVOK 14/14 Q1012
Conditions at: ESKN (SKAVSTA/STOCKHO , SE) observed 0020 UTC 15 July 2020
Temperature: 14.0°C (57°F)
Dewpoint: 14.0°C (57°F) [RH = 100%]
Pressure (altimeter): 29.88 inches Hg (1012.0 mb)
Winds: from the E (100 degrees) at 3 MPH (3 knots; 1.5 m/s)
Visibility: 6 or more miles (10+ km)
Ceiling: ceiling and visibility are OK
Clouds: unknown
Weather: no significant weather observed at this time

METAR text: ESKN 142350Z 08004KT CAVOK 14/13 Q1012
Conditions at: ESKN (SKAVSTA/STOCKHO , SE) observed 2350 UTC 14 July 2020
Temperature: 14.0°C (57°F)
Dewpoint: 13.0°C (55°F) [RH = 94%]
Pressure (altimeter): 29.88 inches Hg (1012.0 mb)
Winds: from the E (80 degrees) at 5 MPH (4 knots; 2.1 m/s)
Visibility: 6 or more miles (10+ km)
Ceiling: ceiling and visibility are OK
Clouds: unknown
Weather: no significant weather observed at this time

METAR text: ESKN 142320Z 00000KT 9999 FEW040 15/13 Q1012
Conditions at: ESKN (SKAVSTA/STOCKHO , SE) observed 2320 UTC 14 July 2020
Temperature: 15.0°C (59°F)
Dewpoint: 13.0°C (55°F) [RH = 88%]
Pressure (altimeter): 29.88 inches Hg (1012.0 mb)
Winds: calm
Visibility: 6 or more miles (10+ km)
Ceiling: at least 12,000 feet AGL
Clouds: few clouds at 4000 feet AGL
Weather: no significant weather observed at this time

METAR text: ESKN 142250Z VRB03KT 9999 OVC053 15/13 Q1012
Conditions at: ESKN (SKAVSTA/STOCKHO , SE) observed 2250 UTC 14 July 2020
Temperature: 15.0°C (59°F)
Dewpoint: 13.0°C (55°F) [RH = 88%]
Pressure (altimeter): 29.88 inches Hg (1012.0 mb)
Winds: variable direction winds at 3 MPH (3 knots; 1.5 m/s)
Visibility: 6 or more miles (10+ km)
Ceiling: 5300 feet AGL
Clouds: overcast cloud deck at 5300 feet AGL
Weather: no significant weather observed at this time

METAR text: ESKN 142220Z 13002KT CAVOK 14/13 Q1012
Conditions at: ESKN (SKAVSTA/STOCKHO , SE) observed 2220 UTC 14 July 2020
Temperature: 14.0°C (57°F)
Dewpoint: 13.0°C (55°F) [RH = 94%]
Pressure (altimeter): 29.88 inches Hg (1012.0 mb)
Winds: from the SE (130 degrees) at 2 MPH (2 knots; 1.0 m/s)
Visibility: 6 or more miles (10+ km)
Ceiling: ceiling and visibility are OK
Clouds: unknown
Weather: no significant weather observed at this time

METAR text: ESKN 142150Z 00000KT CAVOK 15/13 Q1012
Conditions at: ESKN (SKAVSTA/STOCKHO , SE) observed 2150 UTC 14 July 2020
Temperature: 15.0°C (59°F)
Dewpoint: 13.0°C (55°F) [RH = 88%]
Pressure (altimeter): 29.88 inches Hg (1012.0 mb)
Winds: calm
Visibility: 6 or more miles (10+ km)
Ceiling: ceiling and visibility are OK
Clouds: unknown
Weather: no significant weather observed at this time

METAR text: ESKN 142120Z 00000KT CAVOK 15/13 Q1012
Conditions at: ESKN (SKAVSTA/STOCKHO , SE) observed 2120 UTC 14 July 2020
Temperature: 15.0°C (59°F)
Dewpoint: 13.0°C (55°F) [RH = 88%]
Pressure (altimeter): 29.88 inches Hg (1012.0 mb)
Winds: calm
Visibility: 6 or more miles (10+ km)
Ceiling: ceiling and visibility are OK
Clouds: unknown
Weather: no significant weather observed at this time

METAR text: ESKN 142050Z 00000KT CAVOK 15/13 Q1013
Conditions at: ESKN (SKAVSTA/STOCKHO , SE) observed 2050 UTC 14 July 2020
Temperature: 15.0°C (59°F)
Dewpoint: 13.0°C (55°F) [RH = 88%]
Pressure (altimeter): 29.91 inches Hg (1013.0 mb)
Winds: calm
Visibility: 6 or more miles (10+ km)
Ceiling: ceiling and visibility are OK
Clouds: unknown
Weather: no significant weather observed at this time

METAR text: ESKN 142020Z 11002KT 9999 FEW045 BKN059 15/13 Q1013
Conditions at: ESKN (SKAVSTA/STOCKHO , SE) observed 2020 UTC 14 July 2020
Temperature: 15.0°C (59°F)
Dewpoint: 13.0°C (55°F) [RH = 88%]
Pressure (altimeter): 29.91 inches Hg (1013.0 mb)
Winds: from the ESE (110 degrees) at 2 MPH (2 knots; 1.0 m/s)
Visibility: 6 or more miles (10+ km)
Ceiling: 5900 feet AGL
Clouds: few clouds at 4500 feet AGL
broken clouds at 5900 feet AGL
Weather: no significant weather observed at this time

METAR text: ESKN 141950Z 00000KT 9999 FEW042 SCT053 16/12 Q1013
Conditions at: ESKN (SKAVSTA/STOCKHO , SE) observed 1950 UTC 14 July 2020
Temperature: 16.0°C (61°F)
Dewpoint: 12.0°C (54°F) [RH = 77%]
Pressure (altimeter): 29.91 inches Hg (1013.0 mb)
Winds: calm
Visibility: 6 or more miles (10+ km)
Ceiling: at least 12,000 feet AGL
Clouds: few clouds at 4200 feet AGL
scattered clouds at 5300 feet AGL
Weather: no significant weather observed at this time

METAR text: ESKN 141920Z 24003KT CAVOK 16/12 Q1012
Conditions at: ESKN (SKAVSTA/STOCKHO , SE) observed 1920 UTC 14 July 2020
Temperature: 16.0°C (61°F)
Dewpoint: 12.0°C (54°F) [RH = 77%]
Pressure (altimeter): 29.88 inches Hg (1012.0 mb)
Winds: from the WSW (240 degrees) at 3 MPH (3 knots; 1.5 m/s)
Visibility: 6 or more miles (10+ km)
Ceiling: ceiling and visibility are OK
Clouds: unknown
Weather: no significant weather observed at this time

METAR text: ESKN 141850Z 21003KT 150V290 CAVOK 17/12 Q1012
Conditions at: ESKN (SKAVSTA/STOCKHO , SE) observed 1850 UTC 14 July 2020
Temperature: 17.0°C (63°F)
Dewpoint: 12.0°C (54°F) [RH = 72%]
Pressure (altimeter): 29.88 inches Hg (1012.0 mb)
Winds: from the SSW (210 degrees) at 3 MPH (3 knots; 1.5 m/s)
Visibility: 6 or more miles (10+ km)
Ceiling: ceiling and visibility are OK
Clouds: unknown
Weather: no significant weather observed at this time

METAR text: ESKN 141820Z 14005KT CAVOK 17/13 Q1012
Conditions at: ESKN (SKAVSTA/STOCKHO , SE) observed 1820 UTC 14 July 2020
Temperature: 17.0°C (63°F)
Dewpoint: 13.0°C (55°F) [RH = 77%]
Pressure (altimeter): 29.88 inches Hg (1012.0 mb)
Winds: from the SE (140 degrees) at 6 MPH (5 knots; 2.6 m/s)
Visibility: 6 or more miles (10+ km)
Ceiling: ceiling and visibility are OK
Clouds: unknown
Weather: no significant weather observed at this time

METAR text: ESKN 141750Z 16004KT 120V200 CAVOK 18/12 Q1012
Conditions at: ESKN (SKAVSTA/STOCKHO , SE) observed 1750 UTC 14 July 2020
Temperature: 18.0°C (64°F)
Dewpoint: 12.0°C (54°F) [RH = 68%]
Pressure (altimeter): 29.88 inches Hg (1012.0 mb)
Winds: from the SSE (160 degrees) at 5 MPH (4 knots; 2.1 m/s)
Visibility: 6 or more miles (10+ km)
Ceiling: ceiling and visibility are OK
Clouds: unknown
Weather: no significant weather observed at this time

METAR text: ESKN 141720Z 16006KT CAVOK 17/12 Q1012
Conditions at: ESKN (SKAVSTA/STOCKHO , SE) observed 1720 UTC 14 July 2020
Temperature: 17.0°C (63°F)
Dewpoint: 12.0°C (54°F) [RH = 72%]
Pressure (altimeter): 29.88 inches Hg (1012.0 mb)
Winds: from the SSE (160 degrees) at 7 MPH (6 knots; 3.1 m/s)
Visibility: 6 or more miles (10+ km)
Ceiling: ceiling and visibility are OK
Clouds: unknown
Weather: no significant weather observed at this time

METAR text: ESKN 141650Z 17006KT CAVOK 17/12 Q1012
Conditions at: ESKN (SKAVSTA/STOCKHO , SE) observed 1650 UTC 14 July 2020
Temperature: 17.0°C (63°F)
Dewpoint: 12.0°C (54°F) [RH = 72%]
Pressure (altimeter): 29.88 inches Hg (1012.0 mb)
Winds: from the S (170 degrees) at 7 MPH (6 knots; 3.1 m/s)
Visibility: 6 or more miles (10+ km)
Ceiling: ceiling and visibility are OK
Clouds: unknown
Weather: no significant weather observed at this time

METAR text: ESKN 141620Z 16006KT 9999 SCT049 17/12 Q1012
Conditions at: ESKN (SKAVSTA/STOCKHO , SE) observed 1620 UTC 14 July 2020
Temperature: 17.0°C (63°F)
Dewpoint: 12.0°C (54°F) [RH = 72%]
Pressure (altimeter): 29.88 inches Hg (1012.0 mb)
Winds: from the SSE (160 degrees) at 7 MPH (6 knots; 3.1 m/s)
Visibility: 6 or more miles (10+ km)
Ceiling: at least 12,000 feet AGL
Clouds: scattered clouds at 4900 feet AGL
Weather: no significant weather observed at this time

METAR text: ESKN 141550Z 17006KT 9999 -SHRA SCT049CB 17/12 Q1013
Conditions at: ESKN (SKAVSTA/STOCKHO , SE) observed 1550 UTC 14 July 2020
Temperature: 17.0°C (63°F)
Dewpoint: 12.0°C (54°F) [RH = 72%]
Pressure (altimeter): 29.91 inches Hg (1013.0 mb)
Winds: from the S (170 degrees) at 7 MPH (6 knots; 3.1 m/s)
Visibility: 6 or more miles (10+ km)
Ceiling: at least 12,000 feet AGL
Clouds: scattered clouds at 4900 feet AGL
Weather: -SHRA  (light rain showers)

METAR text: ESKN 141520Z 17008KT 9999 BKN053CB 17/11 Q1013
Conditions at: ESKN (SKAVSTA/STOCKHO , SE) observed 1520 UTC 14 July 2020
Temperature: 17.0°C (63°F)
Dewpoint: 11.0°C (52°F) [RH = 68%]
Pressure (altimeter): 29.91 inches Hg (1013.0 mb)
Winds: from the S (170 degrees) at 9 MPH (8 knots; 4.1 m/s)
Visibility: 6 or more miles (10+ km)
Ceiling: 5300 feet AGL
Clouds: broken clouds at 5300 feet AGL
Weather: no significant weather observed at this time

METAR text: ESKN 141450Z 17011KT 9999 VCSH SCT059CB 17/11 Q1013
Conditions at: ESKN (SKAVSTA/STOCKHO , SE) observed 1450 UTC 14 July 2020
Temperature: 17.0°C (63°F)
Dewpoint: 11.0°C (52°F) [RH = 68%]
Pressure (altimeter): 29.91 inches Hg (1013.0 mb)
Winds: from the S (170 degrees) at 13 MPH (11 knots; 5.7 m/s)
Visibility: 6 or more miles (10+ km)
Ceiling: at least 12,000 feet AGL
Clouds: scattered clouds at 5900 feet AGL
Weather: VCSH  (showers in vicinity)

METAR text: ESKN 141420Z 16010KT 9999 SCT050CB 19/11 Q1013
Conditions at: ESKN (SKAVSTA/STOCKHO , SE) observed 1420 UTC 14 July 2020
Temperature: 19.0°C (66°F)
Dewpoint: 11.0°C (52°F) [RH = 60%]
Pressure (altimeter): 29.91 inches Hg (1013.0 mb)
Winds: from the SSE (160 degrees) at 12 MPH (10 knots; 5.1 m/s)
Visibility: 6 or more miles (10+ km)
Ceiling: at least 12,000 feet AGL
Clouds: scattered clouds at 5000 feet AGL
Weather: no significant weather observed at this time

METAR text: ESKN 141350Z 15010KT 130V190 9999 SCT050CB 19/11 Q1013
Conditions at: ESKN (SKAVSTA/STOCKHO , SE) observed 1350 UTC 14 July 2020
Temperature: 19.0°C (66°F)
Dewpoint: 11.0°C (52°F) [RH = 60%]
Pressure (altimeter): 29.91 inches Hg (1013.0 mb)
Winds: from the SSE (150 degrees) at 12 MPH (10 knots; 5.1 m/s)
Visibility: 6 or more miles (10+ km)
Ceiling: at least 12,000 feet AGL
Clouds: scattered clouds at 5000 feet AGL
Weather: no significant weather observed at this time

METAR text: ESKN 141320Z 15009KT 110V190 9999 SCT049TCU 19/11 Q1013
Conditions at: ESKN (SKAVSTA/STOCKHO , SE) observed 1320 UTC 14 July 2020
Temperature: 19.0°C (66°F)
Dewpoint: 11.0°C (52°F) [RH = 60%]
Pressure (altimeter): 29.91 inches Hg (1013.0 mb)
Winds: from the SSE (150 degrees) at 10 MPH (9 knots; 4.6 m/s)
Visibility: 6 or more miles (10+ km)
Ceiling: at least 12,000 feet AGL
Clouds: scattered clouds at 4900 feet AGL
Weather: no significant weather observed at this time

METAR text: ESKN 141250Z 19007KT 150V230 9999 SCT059TCU 19/11 Q1013
Conditions at: ESKN (SKAVSTA/STOCKHO , SE) observed 1250 UTC 14 July 2020
Temperature: 19.0°C (66°F)
Dewpoint: 11.0°C (52°F) [RH = 60%]
Pressure (altimeter): 29.91 inches Hg (1013.0 mb)
Winds: from the S (190 degrees) at 8 MPH (7 knots; 3.6 m/s)
Visibility: 6 or more miles (10+ km)
Ceiling: at least 12,000 feet AGL
Clouds: scattered clouds at 5900 feet AGL
Weather: no significant weather observed at this time

METAR text: ESKN 141220Z 17011KT 9999 SCT049TCU 20/11 Q1013
Conditions at: ESKN (SKAVSTA/STOCKHO , SE) observed 1220 UTC 14 July 2020
Temperature: 20.0°C (68°F)
Dewpoint: 11.0°C (52°F) [RH = 56%]
Pressure (altimeter): 29.91 inches Hg (1013.0 mb)
Winds: from the S (170 degrees) at 13 MPH (11 knots; 5.7 m/s)
Visibility: 6 or more miles (10+ km)
Ceiling: at least 12,000 feet AGL
Clouds: scattered clouds at 4900 feet AGL
Weather: no significant weather observed at this time

METAR text: ESKN 141150Z 16009KT 130V200 9999 SCT049TCU SCT140 19/11 Q1013
Conditions at: ESKN (SKAVSTA/STOCKHO , SE) observed 1150 UTC 14 July 2020
Temperature: 19.0°C (66°F)
Dewpoint: 11.0°C (52°F) [RH = 60%]
Pressure (altimeter): 29.91 inches Hg (1013.0 mb)
Winds: from the SSE (160 degrees) at 10 MPH (9 knots; 4.6 m/s)
Visibility: 6 or more miles (10+ km)
Ceiling: at least 12,000 feet AGL
Clouds: scattered clouds at 4900 feet AGL
scattered clouds at 14000 feet AGL
Weather: no significant weather observed at this time

METAR text: ESKN 141120Z 20008KT 9999 SCT046TCU 20/09 Q1013
Conditions at: ESKN (SKAVSTA/STOCKHO , SE) observed 1120 UTC 14 July 2020
Temperature: 20.0°C (68°F)
Dewpoint: 9.0°C (48°F) [RH = 49%]
Pressure (altimeter): 29.91 inches Hg (1013.0 mb)
Winds: from the SSW (200 degrees) at 9 MPH (8 knots; 4.1 m/s)
Visibility: 6 or more miles (10+ km)
Ceiling: at least 12,000 feet AGL
Clouds: scattered clouds at 4600 feet AGL
Weather: no significant weather observed at this time

METAR text: ESKN 141050Z 23009KT 9999 SCT046TCU 20/08 Q1013
Conditions at: ESKN (SKAVSTA/STOCKHO , SE) observed 1050 UTC 14 July 2020
Temperature: 20.0°C (68°F)
Dewpoint: 8.0°C (46°F) [RH = 46%]
Pressure (altimeter): 29.91 inches Hg (1013.0 mb)
Winds: from the SW (230 degrees) at 10 MPH (9 knots; 4.6 m/s)
Visibility: 6 or more miles (10+ km)
Ceiling: at least 12,000 feet AGL
Clouds: scattered clouds at 4600 feet AGL
Weather: no significant weather observed at this time

METAR text: ESKN 141020Z 24008KT 200V270 9999 FEW035CB SCT038 BKN110 19/09 Q1013
Conditions at: ESKN (SKAVSTA/STOCKHO , SE) observed 1020 UTC 14 July 2020
Temperature: 19.0°C (66°F)
Dewpoint: 9.0°C (48°F) [RH = 52%]
Pressure (altimeter): 29.91 inches Hg (1013.0 mb)
Winds: from the WSW (240 degrees) at 9 MPH (8 knots; 4.1 m/s)
Visibility: 6 or more miles (10+ km)
Ceiling: 11000 feet AGL
Clouds: few clouds at 3500 feet AGL
scattered clouds at 3800 feet AGL
broken clouds at 11000 feet AGL
Weather: no significant weather observed at this time

METAR text: ESKN 140950Z 24008KT 9999 SCT033 BKN110 19/11 Q1014
Conditions at: ESKN (SKAVSTA/STOCKHO , SE) observed 0950 UTC 14 July 2020
Temperature: 19.0°C (66°F)
Dewpoint: 11.0°C (52°F) [RH = 60%]
Pressure (altimeter): 29.94 inches Hg (1014.0 mb)
Winds: from the WSW (240 degrees) at 9 MPH (8 knots; 4.1 m/s)
Visibility: 6 or more miles (10+ km)
Ceiling: 11000 feet AGL
Clouds: scattered clouds at 3300 feet AGL
broken clouds at 11000 feet AGL
Weather: no significant weather observed at this time

METAR text: ESKN 140920Z 22008KT 180V250 9999 SCT039 BKN100 18/10 Q1014
Conditions at: ESKN (SKAVSTA/STOCKHO , SE) observed 0920 UTC 14 July 2020
Temperature: 18.0°C (64°F)
Dewpoint: 10.0°C (50°F) [RH = 59%]
Pressure (altimeter): 29.94 inches Hg (1014.0 mb)
Winds: from the SW (220 degrees) at 9 MPH (8 knots; 4.1 m/s)
Visibility: 6 or more miles (10+ km)
Ceiling: 10000 feet AGL
Clouds: scattered clouds at 3900 feet AGL
broken clouds at 10000 feet AGL
Weather: no significant weather observed at this time

METAR text: ESKN 140850Z 22008KT 150V250 9999 BKN029 18/12 Q1014
Conditions at: ESKN (SKAVSTA/STOCKHO , SE) observed 0850 UTC 14 July 2020
Temperature: 18.0°C (64°F)
Dewpoint: 12.0°C (54°F) [RH = 68%]
Pressure (altimeter): 29.94 inches Hg (1014.0 mb)
Winds: from the SW (220 degrees) at 9 MPH (8 knots; 4.1 m/s)
Visibility: 6 or more miles (10+ km)
Ceiling: 2900 feet AGL
Clouds: broken clouds at 2900 feet AGL
Weather: no significant weather observed at this time

METAR text: ESKN 140820Z 21007KT 9999 BKN032 17/11 Q1014
Conditions at: ESKN (SKAVSTA/STOCKHO , SE) observed 0820 UTC 14 July 2020
Temperature: 17.0°C (63°F)
Dewpoint: 11.0°C (52°F) [RH = 68%]
Pressure (altimeter): 29.94 inches Hg (1014.0 mb)
Winds: from the SSW (210 degrees) at 8 MPH (7 knots; 3.6 m/s)
Visibility: 6 or more miles (10+ km)
Ceiling: 3200 feet AGL
Clouds: broken clouds at 3200 feet AGL
Weather: no significant weather observed at this time

METAR text: ESKN 140750Z 24004KT 160V300 9999 SCT022 SCT098 17/11 Q1014
Conditions at: ESKN (SKAVSTA/STOCKHO , SE) observed 0750 UTC 14 July 2020
Temperature: 17.0°C (63°F)
Dewpoint: 11.0°C (52°F) [RH = 68%]
Pressure (altimeter): 29.94 inches Hg (1014.0 mb)
Winds: from the WSW (240 degrees) at 5 MPH (4 knots; 2.1 m/s)
Visibility: 6 or more miles (10+ km)
Ceiling: at least 12,000 feet AGL
Clouds: scattered clouds at 2200 feet AGL
scattered clouds at 9800 feet AGL
Weather: no significant weather observed at this time

METAR text: ESKN 140720Z 24005KT 9999 SCT043 SCT098 16/11 Q1014
Conditions at: ESKN (SKAVSTA/STOCKHO , SE) observed 0720 UTC 14 July 2020
Temperature: 16.0°C (61°F)
Dewpoint: 11.0°C (52°F) [RH = 72%]
Pressure (altimeter): 29.94 inches Hg (1014.0 mb)
Winds: from the WSW (240 degrees) at 6 MPH (5 knots; 2.6 m/s)
Visibility: 6 or more miles (10+ km)
Ceiling: at least 12,000 feet AGL
Clouds: scattered clouds at 4300 feet AGL
scattered clouds at 9800 feet AGL
Weather: no significant weather observed at this time

METAR text: ESKN 140650Z 24005KT 9999 SCT040 BKN100 15/11 Q1014
Conditions at: ESKN (SKAVSTA/STOCKHO , SE) observed 0650 UTC 14 July 2020
Temperature: 15.0°C (59°F)
Dewpoint: 11.0°C (52°F) [RH = 77%]
Pressure (altimeter): 29.94 inches Hg (1014.0 mb)
Winds: from the WSW (240 degrees) at 6 MPH (5 knots; 2.6 m/s)
Visibility: 6 or more miles (10+ km)
Ceiling: 10000 feet AGL
Clouds: scattered clouds at 4000 feet AGL
broken clouds at 10000 feet AGL
Weather: no significant weather observed at this time

METAR text: ESKN 140620Z 24005KT 210V270 9999 SCT039 BKN098 15/11 Q1014
Conditions at: ESKN (SKAVSTA/STOCKHO , SE) observed 0620 UTC 14 July 2020
Temperature: 15.0°C (59°F)
Dewpoint: 11.0°C (52°F) [RH = 77%]
Pressure (altimeter): 29.94 inches Hg (1014.0 mb)
Winds: from the WSW (240 degrees) at 6 MPH (5 knots; 2.6 m/s)
Visibility: 6 or more miles (10+ km)
Ceiling: 9800 feet AGL
Clouds: scattered clouds at 3900 feet AGL
broken clouds at 9800 feet AGL
Weather: no significant weather observed at this time

METAR text: ESKN 140550Z 26006KT 9999 SCT037 BKN046 15/11 Q1014
Conditions at: ESKN (SKAVSTA/STOCKHO , SE) observed 0550 UTC 14 July 2020
Temperature: 15.0°C (59°F)
Dewpoint: 11.0°C (52°F) [RH = 77%]
Pressure (altimeter): 29.94 inches Hg (1014.0 mb)
Winds: from the W (260 degrees) at 7 MPH (6 knots; 3.1 m/s)
Visibility: 6 or more miles (10+ km)
Ceiling: 4600 feet AGL
Clouds: scattered clouds at 3700 feet AGL
broken clouds at 4600 feet AGL
Weather: no significant weather observed at this time

METAR text: ESKN 140520Z 26004KT 9999 FEW037 BKN051 14/11 Q1014
Conditions at: ESKN (SKAVSTA/STOCKHO , SE) observed 0520 UTC 14 July 2020
Temperature: 14.0°C (57°F)
Dewpoint: 11.0°C (52°F) [RH = 82%]
Pressure (altimeter): 29.94 inches Hg (1014.0 mb)
Winds: from the W (260 degrees) at 5 MPH (4 knots; 2.1 m/s)
Visibility: 6 or more miles (10+ km)
Ceiling: 5100 feet AGL
Clouds: few clouds at 3700 feet AGL
broken clouds at 5100 feet AGL
Weather: no significant weather observed at this time

METAR text: ESKN 140450Z 27005KT CAVOK 14/11 Q1014
Conditions at: ESKN (SKAVSTA/STOCKHO , SE) observed 0450 UTC 14 July 2020
Temperature: 14.0°C (57°F)
Dewpoint: 11.0°C (52°F) [RH = 82%]
Pressure (altimeter): 29.94 inches Hg (1014.0 mb)
Winds: from the W (270 degrees) at 6 MPH (5 knots; 2.6 m/s)
Visibility: 6 or more miles (10+ km)
Ceiling: ceiling and visibility are OK
Clouds: unknown
Weather: no significant weather observed at this time

METAR text: ESKN 140420Z 26003KT CAVOK 13/11 Q1014
Conditions at: ESKN (SKAVSTA/STOCKHO , SE) observed 0420 UTC 14 July 2020
Temperature: 13.0°C (55°F)
Dewpoint: 11.0°C (52°F) [RH = 88%]
Pressure (altimeter): 29.94 inches Hg (1014.0 mb)
Winds: from the W (260 degrees) at 3 MPH (3 knots; 1.5 m/s)
Visibility: 6 or more miles (10+ km)
Ceiling: ceiling and visibility are OK
Clouds: unknown
Weather: no significant weather observed at this time

METAR text: ESKN 140350Z 27004KT CAVOK 12/11 Q1014
Conditions at: ESKN (SKAVSTA/STOCKHO , SE) observed 0350 UTC 14 July 2020
Temperature: 12.0°C (54°F)
Dewpoint: 11.0°C (52°F) [RH = 94%]
Pressure (altimeter): 29.94 inches Hg (1014.0 mb)
Winds: from the W (270 degrees) at 5 MPH (4 knots; 2.1 m/s)
Visibility: 6 or more miles (10+ km)
Ceiling: ceiling and visibility are OK
Clouds: unknown
Weather: no significant weather observed at this time

METAR text: ESKN 140320Z 26004KT CAVOK 12/11 Q1015
Conditions at: ESKN (SKAVSTA/STOCKHO , SE) observed 0320 UTC 14 July 2020
Temperature: 12.0°C (54°F)
Dewpoint: 11.0°C (52°F) [RH = 94%]
Pressure (altimeter): 29.97 inches Hg (1015.0 mb)
Winds: from the W (260 degrees) at 5 MPH (4 knots; 2.1 m/s)
Visibility: 6 or more miles (10+ km)
Ceiling: ceiling and visibility are OK
Clouds: unknown
Weather: no significant weather observed at this time

METAR text: ESKN 140250Z 00000KT CAVOK 12/10 Q1014
Conditions at: ESKN (SKAVSTA/STOCKHO , SE) observed 0250 UTC 14 July 2020
Temperature: 12.0°C (54°F)
Dewpoint: 10.0°C (50°F) [RH = 88%]
Pressure (altimeter): 29.94 inches Hg (1014.0 mb)
Winds: calm
Visibility: 6 or more miles (10+ km)
Ceiling: ceiling and visibility are OK
Clouds: unknown
Weather: no significant weather observed at this time

METAR text: ESKN 140220Z 00000KT CAVOK 12/10 Q1015
Conditions at: ESKN (SKAVSTA/STOCKHO , SE) observed 0220 UTC 14 July 2020
Temperature: 12.0°C (54°F)
Dewpoint: 10.0°C (50°F) [RH = 88%]
Pressure (altimeter): 29.97 inches Hg (1015.0 mb)
Winds: calm
Visibility: 6 or more miles (10+ km)
Ceiling: ceiling and visibility are OK
Clouds: unknown
Weather: no significant weather observed at this time

METAR text: ESKN 140150Z 27003KT CAVOK 12/10 Q1015
Conditions at: ESKN (SKAVSTA/STOCKHO , SE) observed 0150 UTC 14 July 2020
Temperature: 12.0°C (54°F)
Dewpoint: 10.0°C (50°F) [RH = 88%]
Pressure (altimeter): 29.97 inches Hg (1015.0 mb)
Winds: from the W (270 degrees) at 3 MPH (3 knots; 1.5 m/s)
Visibility: 6 or more miles (10+ km)
Ceiling: ceiling and visibility are OK
Clouds: unknown
Weather: no significant weather observed at this time

METAR text: ESKN 140120Z 24001KT CAVOK 11/09 Q1015
Conditions at: ESKN (SKAVSTA/STOCKHO , SE) observed 0120 UTC 14 July 2020
Temperature: 11.0°C (52°F)
Dewpoint: 9.0°C (48°F) [RH = 87%]
Pressure (altimeter): 29.97 inches Hg (1015.0 mb)
Winds: from the WSW (240 degrees) at 1 MPH (1 knots; 0.5 m/s)
Visibility: 6 or more miles (10+ km)
Ceiling: ceiling and visibility are OK
Clouds: unknown
Weather: no significant weather observed at this time

METAR text: ESKN 140050Z 00000KT CAVOK 10/09 Q1015
Conditions at: ESKN (SKAVSTA/STOCKHO , SE) observed 0050 UTC 14 July 2020
Temperature: 10.0°C (50°F)
Dewpoint: 9.0°C (48°F) [RH = 93%]
Pressure (altimeter): 29.97 inches Hg (1015.0 mb)
Winds: calm
Visibility: 6 or more miles (10+ km)
Ceiling: ceiling and visibility are OK
Clouds: unknown
Weather: no significant weather observed at this time

Forecast for: ESKN (SKAVSTA/STOCKHO , SE)
Text: TAF ESKN 151130Z 1512/1612 13012KT CAVOK
Forecast period: 1200 to 2100 UTC 15 July 2020
Forecast type: FROM: standard forecast or significant change
Winds: from the SE (130 degrees) at 14 MPH (12 knots; 6.2 m/s)
Visibility: 6 or more miles 10+ km)
Ceiling: unknown
Clouds: missing
Weather: NSW  (no significant weather)
Text: PROB40 1515/1519 SCT060CB
Forecast period: 1500 to 1900 UTC 15 July 2020
Forecast type: PROBABLE: 40 percent likelihood of the following during this time
Visibility: missing
Ceiling: at least 12,000 feet AGL
Clouds: scattered clouds at 6000 feet AGL
Weather: no significant weather forecast for this period
Text: BECMG 1521/1523 07003KT
Forecast period: 2100 UTC 15 July 2020 to 1200 UTC 16 July 2020
Forecast type: BECOMING: Conditions expected to become as follows by 2300 UTC 15 July 2020
Winds: from the ENE (70 degrees) at 3 MPH (3 knots; 1.5 m/s)
Visibility: 6 or more miles 10+ km)
Ceiling: unknown
Clouds: missing
Weather: NSW  (no significant weather)
Text: PROB40 1521/1604 2000 BR
Forecast period: 2100 UTC 15 July 2020 to 0400 UTC 16 July 2020
Forecast type: PROBABLE: 40 percent likelihood of the following during this time
Visibility: 1.24 miles (2.00 km)
Ceiling: unknown
Clouds: missing
Weather: BR  (mist)